International Virtual Aviation Organisation

Russian Federation and Kazakhstan MCD

 
UACP 061000Z 04003MPS 340V080 CAVOK 32/14 Q1017 R05/0/0060 NOSIG RMK QFE751/1001
QNH:(hPa/inHg/mmHg)1017 / 30.03 / 763
QFE:(hPa/inHg/mmHg)1000 / 29.53 / 750
Temperature32
Dew Point14
Visibility> 10000
WeatherCAVOK
Cloud Cover
Transition Height10000 m./33300 ft.
Transition LevelFL340
SQUAWK